Portada
METAR-TAF:

METAR-TAF

Aeropuertos :

Aeropuerto de Madeira

Funchal, Madeira, Portugal

latitud: 32-41-52N, longitud: 016-46-28W, altitud: 59 m

Observación

El informe se hizo hace 37 minutos, a las 15:00 UTC
Viento 13 kt del norte-noreste con ráfagas de 23 kt, variando entre norte-noroeste y noreste
Temperatura 19°C
Humedad 60%
Presión 1020 hPa
Visibilidad 10 km o más
Escasas nubes a una altura de 1600 ft

METAR: LPMA 201500Z 02013G23KT 340V050 9999 FEW016 19/11 Q1020

Hora: 15:37 (15:37 UTC)

Pronóstico

El informe se hizo hace 4 horas y 37 minutos, a las 11:00 UTC
Pronóstico válido del 20 a las 12 UTC al 21 a las 12 UTC
Viento 15 kt del norte-noreste
Visibilidad 10 km o más
Nubes dispersas a una altura de 1500 ft
Temporalmente
del 20 a las 12 UTC al 20 a las 22 UTC
Viento 20 kt del norte con ráfagas de 30 kt

TAF: LPMA 201100Z 2012/2112 02015KT 9999 SCT015 TEMPO 2012/2022 01020G30KT

Observaciones y pronósticos meteorológicos de más de 4000 aeropuertos (mensajes METAR y TAF).

Los puntos amarillos y rojos representan las estaciones disponibles.

Ponga el ratón en el punto deseado para ver el nombre de la estación.

Haga clic para ver las observaciones y los pronósticos meteorológicos.

Para cambiar el mapa : haga clic en los botones verdes con una cruz de color negro para hacer un zoom, en el botón verde con un guión para alejar o en las flechas verdes para mapas adyacentes.


METAR-TAF: